Terminal Aerodrome Forecast
Issued by NWS San Angelo, TX

Home | Current Version | Previous Version | Text Only | Print | Product List | Glossary On
Versions: 1 2 3 4 5 6 7 8 9 10 11 12 13 14 15
000
FTUS44 KSJT 181100
TAFSJT
TAF
KSJT 181123Z 1812/1912 VRB03KT 6SM BR SCT008 OVC015
     FM181500 08007KT P6SM OVC025
     FM181700 13007KT P6SM SCT050
     FM190000 11008KT P6SM SKC
     FM190900 13006KT P6SM BKN015=

USA.gov is the U.S. government's official web portal to all federal, state and local government web resources and services.